KEDE/EDE METAR and TAF weather

Enter ICAO airport designator
Station Type Date Time Source
KEDE METAR 2019/09/21 04:40 UTC NOAA

KEDE 210440Z AUTO 17004KT 10SM CLR 19/18 A3028 RMK AO2 T01910175


Station Type Date Time Source
KEDE Decoded METAR 2019/09/21 04:40 UTC NOAA

Edenton, Northeastern Regional Airport, NC, United States (KEDE) 36-01-40N 076-34-02W
Sep 21, 2019 - 12:40 AM EDT / 2019.09.21 0440 UTC
Wind: from the S (170 degrees) at 5 MPH (4 KT):0
Visibility: 10 mile(s):0
Sky conditions: clear
Temperature: 66.4 F (19.1 C)
Dew Point: 63.5 F (17.5 C)
Relative Humidity: 90%
Pressure (altimeter): 30.28 in. Hg (1025 hPa)
ob: KEDE 210440Z AUTO 17004KT 10SM CLR 19/18 A3028 RMK AO2 T01910175
cycle: 4

Station Type Date Time Source
KEDE TAF UTC NOAA

Error!

Example: see airport list